Time;durP1;ratioP1;P1;durP2;ratioP2;P2;SDS_P1;SDS_P2;PMS_P1;PMS_P2;Temp;Humidity;BMP_temperature;BMP_pressure;BME280_temperature;BME280_humidity;BME280_pressure;Samples;Min_cycle;Max_cycle;Signal;HPM_P1;HPM_P2
2022/08/01 00:02:31;;;;;;;23.17;13.83;;;;;20.60;100981.00;;;;4924418;29;20312;-71
2022/08/01 00:05:18;;;;;;;19.93;13.77;;;;;20.50;100990.00;;;;4926509;29;20730;-73
2022/08/01 00:08:05;;;;;;;24.97;14.13;;;;;20.50;100986.00;;;;4928319;29;20241;-74
2022/08/01 00:10:51;;;;;;;23.43;13.67;;;;;20.50;100993.00;;;;4925769;29;20250;-70
2022/08/01 00:13:37;;;;;;;21.37;14.47;;;;;20.50;100985.00;;;;4925392;29;20365;-71
2022/08/01 00:16:25;;;;;;;22.93;13.50;;;;;20.50;100995.00;;;;4928584;28;20236;-72
2022/08/01 00:19:11;;;;;;;23.37;13.90;;;;;20.40;100992.00;;;;4931173;28;20236;-70
2022/08/01 00:21:57;;;;;;;22.83;13.93;;;;;20.40;100993.00;;;;4920698;29;21179;-70
2022/08/01 00:24:43;;;;;;;22.93;13.33;;;;;20.50;100986.00;;;;4928409;29;20232;-71
2022/08/01 00:27:31;;;;;;;20.50;13.20;;;;;20.40;100983.00;;;;4923123;29;20248;-71
2022/08/01 00:30:22;;;;;;;18.77;13.00;;;;;20.40;100985.00;;;;4926927;29;20284;-73
2022/08/01 00:33:10;;;;;;;21.13;13.00;;;;;20.40;100992.00;;;;4926262;28;20244;-74
2022/08/01 00:35:57;;;;;;;18.73;12.97;;;;;20.40;100987.00;;;;4922189;29;20264;-71
2022/08/01 00:38:43;;;;;;;18.57;13.17;;;;;20.30;100989.00;;;;4925731;29;20240;-73
2022/08/01 00:41:29;;;;;;;18.80;13.10;;;;;20.40;100987.00;;;;4921132;28;20716;-73
2022/08/01 00:44:16;;;;;;;19.70;12.53;;;;;20.40;100992.00;;;;4929928;29;20237;-71
2022/08/01 00:47:03;;;;;;;22.87;13.53;;;;;20.40;100982.00;;;;4929028;29;20240;-77
2022/08/01 00:49:51;;;;;;;20.20;12.63;;;;;20.40;100992.00;;;;4923846;29;20710;-71
2022/08/01 00:52:37;;;;;;;20.17;12.63;;;;;20.40;100989.00;;;;4924792;29;20240;-73
2022/08/01 00:55:24;;;;;;;20.20;13.77;;;;;20.30;100994.00;;;;4926744;29;20658;-71
2022/08/01 00:58:11;;;;;;;22.23;13.40;;;;;20.40;100991.00;;;;4930043;29;20272;-74
2022/08/01 01:00:57;;;;;;;22.70;12.47;;;;;20.30;100990.00;;;;4930403;28;20227;-71
2022/08/01 01:03:49;;;;;;;22.70;12.77;;;;;20.40;100994.00;;;;4927435;29;20605;-72
2022/08/01 01:06:52;;;;;;;20.13;13.43;;;;;20.30;100991.00;;;;4921733;29;20710;-70
2022/08/01 01:09:46;;;;;;;21.73;12.37;;;;;20.30;100985.00;;;;4921569;29;20269;-72
2022/08/01 01:12:37;;;;;;;22.93;12.67;;;;;20.40;100989.00;;;;4927466;28;20292;-71
2022/08/01 01:15:31;;;;;;;21.00;13.50;;;;;20.30;100986.00;;;;4921542;29;20238;-73
2022/08/01 01:18:23;;;;;;;20.27;12.30;;;;;20.30;100987.00;;;;4929460;29;20237;-73
2022/08/01 01:21:31;;;;;;;23.83;14.20;;;;;20.30;100981.00;;;;4927522;29;20237;-71
2022/08/01 01:24:26;;;;;;;21.37;12.53;;;;;20.30;100988.00;;;;4928664;29;20232;-74
2022/08/01 01:27:22;;;;;;;21.60;12.80;;;;;20.20;100982.00;;;;4926494;29;20233;-70
2022/08/01 01:30:10;;;;;;;20.43;13.43;;;;;20.30;100990.00;;;;4929159;28;20237;-73
2022/08/01 01:33:01;;;;;;;28.47;13.80;;;;;20.20;100990.00;;;;4927121;29;20329;-70
2022/08/01 01:35:53;;;;;;;24.97;14.27;;;;;20.20;100988.00;;;;4924631;29;20229;-69
2022/08/01 01:38:42;;;;;;;21.53;13.07;;;;;20.30;100990.00;;;;4928669;28;20232;-70
2022/08/01 01:41:30;;;;;;;20.93;14.17;;;;;20.20;100994.00;;;;4928708;29;20312;-69
2022/08/01 01:44:18;;;;;;;22.60;13.93;;;;;20.20;100993.00;;;;4926275;28;20730;-72
2022/08/01 01:47:07;;;;;;;23.90;13.70;;;;;20.10;101005.00;;;;4930348;28;20736;-73
2022/08/01 01:49:56;;;;;;;22.73;13.07;;;;;20.10;101002.00;;;;4918120;28;20722;-72
2022/08/01 01:52:45;;;;;;;20.60;13.17;;;;;20.20;101006.00;;;;4926778;29;20252;-72
2022/08/01 01:55:32;;;;;;;21.90;13.23;;;;;20.10;101004.00;;;;4925937;29;20237;-75
2022/08/01 01:58:37;;;;;;;21.00;12.50;;;;;20.10;101000.00;;;;4919280;29;20372;-71
2022/08/01 02:01:27;;;;;;;21.17;13.43;;;;;20.10;100992.00;;;;4931198;29;20920;-71
2022/08/01 02:04:37;;;;;;;21.00;13.30;;;;;20.00;100999.00;;;;4929492;29;20318;-72
2022/08/01 02:07:25;;;;;;;17.90;12.20;;;;;19.90;100996.00;;;;4934527;28;20319;-72
2022/08/01 02:10:13;;;;;;;26.97;13.40;;;;;20.00;100992.00;;;;4932278;29;20303;-72
2022/08/01 02:13:04;;;;;;;22.50;13.30;;;;;19.90;100996.00;;;;4932781;29;20285;-71
2022/08/01 02:15:50;;;;;;;25.37;13.53;;;;;19.90;100992.00;;;;4931033;29;20232;-70
2022/08/01 02:18:45;;;;;;;19.00;12.27;;;;;19.90;100985.00;;;;4924515;29;20236;-71
2022/08/01 02:21:49;;;;;;;21.33;11.87;;;;;19.80;100988.00;;;;4921993;29;20233;-70
2022/08/01 02:24:38;;;;;;;20.73;11.10;;;;;19.80;100997.00;;;;4929062;29;20224;-73
2022/08/01 02:27:28;;;;;;;22.27;11.80;;;;;19.80;100994.00;;;;4928503;29;20332;-70
2022/08/01 02:30:16;;;;;;;18.47;10.83;;;;;19.80;100991.00;;;;4931261;29;20357;-71
2022/08/01 02:33:06;;;;;;;19.27;11.07;;;;;19.60;100998.00;;;;4932187;29;20353;-72
2022/08/01 02:36:03;;;;;;;21.57;10.80;;;;;19.70;100999.00;;;;4935140;28;21059;-71
2022/08/01 02:39:14;;;;;;;16.40;9.57;;;;;19.70;101002.00;;;;4929033;29;20232;-73
2022/08/01 02:42:06;;;;;;;16.07;10.00;;;;;19.60;101007.00;;;;4925313;29;20245;-72
2022/08/01 02:44:54;;;;;;;18.23;9.80;;;;;19.60;101000.00;;;;4929208;29;20244;-73
2022/08/01 02:47:43;;;;;;;14.30;9.10;;;;;19.70;101001.00;;;;4925503;29;20232;-72
2022/08/01 02:50:32;;;;;;;16.87;9.67;;;;;19.60;100996.00;;;;4932497;28;20315;-70
2022/08/01 02:53:21;;;;;;;15.40;9.40;;;;;19.50;101009.00;;;;4932176;29;20240;-72
2022/08/01 02:56:34;;;;;;;15.97;9.70;;;;;19.60;101010.00;;;;4930572;29;20288;-69
2022/08/01 02:59:25;;;;;;;17.90;9.03;;;;;19.60;101003.00;;;;4930382;28;20234;-71
2022/08/01 03:02:13;;;;;;;15.23;9.73;;;;;19.60;101000.00;;;;4930548;28;21085;-70
2022/08/01 03:05:01;;;;;;;14.63;8.73;;;;;19.60;101003.00;;;;4927884;29;20232;-73
2022/08/01 03:07:48;;;;;;;17.10;9.20;;;;;19.60;100999.00;;;;4929911;29;20361;-74
2022/08/01 03:10:37;;;;;;;17.63;9.10;;;;;19.60;101006.00;;;;4926181;29;20235;-71
2022/08/01 03:13:26;;;;;;;12.77;8.00;;;;;19.50;101003.00;;;;4932172;28;20240;-73
2022/08/01 03:16:14;;;;;;;13.90;8.30;;;;;19.50;101005.00;;;;4924485;29;20794;-72
2022/08/01 03:19:02;;;;;;;14.77;8.40;;;;;19.50;101005.00;;;;4928062;29;20257;-74
2022/08/01 03:21:50;;;;;;;13.80;8.33;;;;;19.50;101018.00;;;;4933188;28;20616;-73
2022/08/01 03:24:40;;;;;;;14.90;8.47;;;;;19.50;101013.00;;;;4929798;28;20303;-70
2022/08/01 03:27:26;;;;;;;14.67;7.77;;;;;19.40;101018.00;;;;4930606;29;20338;-71
2022/08/01 03:30:15;;;;;;;15.93;8.33;;;;;19.40;101018.00;;;;4928108;29;20236;-73
2022/08/01 03:33:03;;;;;;;13.50;7.77;;;;;19.40;101017.00;;;;4920440;29;20729;-72
2022/08/01 03:35:53;;;;;;;14.53;8.70;;;;;19.30;101017.00;;;;4934135;28;20620;-71
2022/08/01 03:38:41;;;;;;;15.50;7.97;;;;;19.40;101016.00;;;;4929198;29;20356;-71
2022/08/01 03:41:33;;;;;;;16.37;8.30;;;;;19.40;101018.00;;;;4928844;29;20260;-71
2022/08/01 03:44:28;;;;;;;13.73;8.50;;;;;19.40;101020.00;;;;4921949;29;20281;-71
2022/08/01 03:47:18;;;;;;;11.70;7.60;;;;;19.30;101024.00;;;;4932414;29;20231;-71
2022/08/01 03:50:10;;;;;;;12.27;7.37;;;;;19.40;101024.00;;;;4929898;29;20257;-74
2022/08/01 03:53:01;;;;;;;12.40;7.87;;;;;19.40;101026.00;;;;4930954;28;20729;-69
2022/08/01 03:55:48;;;;;;;14.23;8.20;;;;;19.30;101018.00;;;;4924398;29;20241;-71
2022/08/01 03:58:34;;;;;;;15.00;7.90;;;;;19.30;101019.00;;;;4936178;28;20345;-72
2022/08/01 04:01:21;;;;;;;14.53;8.60;;;;;19.30;101027.00;;;;4930802;29;20232;-70
2022/08/01 04:04:08;;;;;;;13.57;7.87;;;;;19.40;101028.00;;;;4934414;28;20235;-74
2022/08/01 04:06:55;;;;;;;13.30;8.17;;;;;19.30;101031.00;;;;4932312;28;20231;-71
2022/08/01 04:09:42;;;;;;;12.90;7.93;;;;;19.30;101022.00;;;;4922419;29;20713;-70
2022/08/01 04:12:28;;;;;;;11.37;7.63;;;;;19.30;101030.00;;;;4936871;28;20235;-72
2022/08/01 04:15:15;;;;;;;13.87;7.33;;;;;19.30;101027.00;;;;4927656;28;20240;-72
2022/08/01 04:18:01;;;;;;;15.77;8.93;;;;;19.30;101029.00;;;;4928095;29;20782;-72
2022/08/01 04:20:49;;;;;;;14.23;8.00;;;;;19.30;101026.00;;;;4923255;29;20360;-72
2022/08/01 04:23:36;;;;;;;16.00;8.20;;;;;19.30;101021.00;;;;4931847;28;20312;-71
2022/08/01 04:26:24;;;;;;;12.10;7.70;;;;;19.30;101029.00;;;;4927686;28;20296;-68
2022/08/01 04:29:12;;;;;;;11.03;7.30;;;;;19.30;101037.00;;;;4924089;29;20244;-69
2022/08/01 04:32:00;;;;;;;12.83;8.40;;;;;19.30;101036.00;;;;4922677;29;20253;-71
2022/08/01 04:34:49;;;;;;;12.77;7.73;;;;;19.30;101040.00;;;;4927807;29;20251;-70
2022/08/01 04:37:38;;;;;;;17.80;8.07;;;;;19.40;101033.00;;;;4929072;29;20253;-70
2022/08/01 04:40:26;;;;;;;12.03;7.67;;;;;19.30;101040.00;;;;4929472;28;20233;-71
2022/08/01 04:43:13;;;;;;;13.50;8.37;;;;;19.40;101043.00;;;;4932792;28;20232;-70
2022/08/01 04:46:03;;;;;;;13.17;7.37;;;;;19.30;101046.00;;;;4926103;28;20240;-71
2022/08/01 04:48:50;;;;;;;14.40;7.77;;;;;19.40;101053.00;;;;4923578;29;20248;-71
2022/08/01 04:51:36;;;;;;;12.50;7.30;;;;;19.40;101047.00;;;;4924951;29;20320;-69
2022/08/01 04:54:24;;;;;;;11.70;7.33;;;;;19.40;101056.00;;;;4929750;28;20719;-72
2022/08/01 04:57:10;;;;;;;14.30;7.70;;;;;19.50;101056.00;;;;4929887;29;20233;-71
2022/08/01 04:59:57;;;;;;;12.63;7.37;;;;;19.60;101063.00;;;;4925032;29;20240;-72
2022/08/01 05:02:43;;;;;;;13.03;7.70;;;;;19.60;101063.00;;;;4924541;29;21052;-70
2022/08/01 05:05:30;;;;;;;13.73;7.80;;;;;19.50;101065.00;;;;4924041;29;20236;-70
2022/08/01 05:08:17;;;;;;;15.13;7.80;;;;;19.50;101060.00;;;;4929623;29;20240;-72
2022/08/01 05:11:04;;;;;;;13.47;7.97;;;;;19.50;101047.00;;;;4925306;29;20604;-71
2022/08/01 05:13:51;;;;;;;14.93;8.43;;;;;19.60;101060.00;;;;4916086;28;20406;-71
2022/08/01 05:16:37;;;;;;;14.40;7.77;;;;;19.50;101069.00;;;;4928913;29;20248;-71
2022/08/01 05:19:24;;;;;;;11.97;7.23;;;;;19.60;101063.00;;;;4929611;28;20312;-71
2022/08/01 05:22:11;;;;;;;14.13;7.93;;;;;19.60;101061.00;;;;4929178;29;20236;-72
2022/08/01 05:24:57;;;;;;;14.83;8.20;;;;;19.60;101059.00;;;;4922814;28;20237;-71
2022/08/01 05:27:46;;;;;;;16.33;8.27;;;;;19.70;101071.00;;;;4925851;29;20857;-70
2022/08/01 05:30:34;;;;;;;14.07;7.63;;;;;19.70;101069.00;;;;4925630;29;20817;-71
2022/08/01 05:33:21;;;;;;;15.53;8.30;;;;;19.70;101071.00;;;;4925600;29;20232;-71
2022/08/01 05:36:07;;;;;;;14.13;8.10;;;;;19.70;101078.00;;;;4925628;28;20244;-71
2022/08/01 05:38:54;;;;;;;15.43;8.70;;;;;19.70;101084.00;;;;4928368;28;20231;-71
2022/08/01 05:41:41;;;;;;;13.57;8.20;;;;;19.70;101083.00;;;;4926820;29;20232;-70
2022/08/01 05:44:29;;;;;;;15.67;8.13;;;;;19.70;101086.00;;;;4926580;29;20392;-72
2022/08/01 05:47:15;;;;;;;17.17;9.40;;;;;19.70;101084.00;;;;4926926;29;20582;-74
2022/08/01 05:50:02;;;;;;;15.20;8.67;;;;;19.70;101085.00;;;;4926931;29;20264;-71
2022/08/01 05:52:48;;;;;;;14.13;8.97;;;;;19.80;101080.00;;;;4915126;29;20839;-72
2022/08/01 05:55:35;;;;;;;15.63;8.40;;;;;19.80;101079.00;;;;4921325;28;20717;-71
2022/08/01 05:58:21;;;;;;;13.03;7.90;;;;;19.80;101081.00;;;;4929488;28;20789;-73
2022/08/01 06:01:09;;;;;;;12.37;7.60;;;;;20.00;101083.00;;;;4923769;28;20339;-72
2022/08/01 06:03:55;;;;;;;12.57;7.40;;;;;19.90;101081.00;;;;4921724;28;20734;-73
2022/08/01 06:06:41;;;;;;;11.97;6.77;;;;;19.80;101084.00;;;;4927942;28;20296;-72
2022/08/01 06:09:28;;;;;;;10.20;6.80;;;;;19.90;101087.00;;;;4928565;29;20243;-72
2022/08/01 06:12:15;;;;;;;13.37;6.83;;;;;20.10;101079.00;;;;4920448;29;20232;-71
2022/08/01 06:15:01;;;;;;;10.70;6.20;;;;;20.30;101078.00;;;;4914889;29;20242;-72
2022/08/01 06:17:49;;;;;;;12.30;6.77;;;;;20.30;101086.00;;;;4927506;29;20368;-73
2022/08/01 06:20:35;;;;;;;10.67;6.53;;;;;20.20;101085.00;;;;4926863;29;20292;-76
2022/08/01 06:23:22;;;;;;;7.87;5.33;;;;;20.20;101092.00;;;;4925511;28;20235;-72
2022/08/01 06:26:18;;;;;;;12.37;6.73;;;;;20.30;101085.00;;;;4922616;29;20750;-73
2022/08/01 06:29:04;;;;;;;9.03;6.60;;;;;20.30;101089.00;;;;4923961;29;20259;-71
2022/08/01 06:31:51;;;;;;;11.13;6.63;;;;;20.20;101091.00;;;;4925355;29;20729;-70
2022/08/01 06:34:39;;;;;;;10.10;6.83;;;;;20.10;101092.00;;;;4928752;29;20236;-72
2022/08/01 06:37:29;;;;;;;11.93;6.80;;;;;20.10;101088.00;;;;4921184;29;20309;-71
2022/08/01 06:40:15;;;;;;;14.07;7.47;;;;;20.10;101092.00;;;;4931693;28;20306;-70
2022/08/01 06:43:02;;;;;;;14.43;7.63;;;;;20.10;101101.00;;;;4926400;29;20289;-72
2022/08/01 06:45:49;;;;;;;12.53;8.10;;;;;20.10;101104.00;;;;4923501;29;20311;-71
2022/08/01 06:48:39;;;;;;;15.17;8.73;;;;;20.40;101087.00;;;;4931261;29;20232;-70
2022/08/01 06:51:26;;;;;;;12.57;7.67;;;;;20.40;101100.00;;;;4931424;29;20236;-73
2022/08/01 06:54:12;;;;;;;14.07;7.70;;;;;20.40;101103.00;;;;4923174;28;20325;-73
2022/08/01 06:56:58;;;;;;;15.67;7.80;;;;;20.50;101091.00;;;;4925591;29;20244;-73
2022/08/01 06:59:45;;;;;;;13.30;8.10;;;;;20.60;101102.00;;;;4925663;29;20233;-72
2022/08/01 07:02:40;;;;;;;13.23;7.33;;;;;20.60;101092.00;;;;4937039;28;20232;-70
2022/08/01 07:05:27;;;;;;;13.10;7.60;;;;;20.60;101103.00;;;;4926179;29;20289;-76
2022/08/01 07:08:15;;;;;;;11.50;7.07;;;;;20.60;101102.00;;;;4930999;29;20252;-71
2022/08/01 07:11:01;;;;;;;10.37;7.13;;;;;20.60;101096.00;;;;4913307;29;20273;-69
2022/08/01 07:13:47;;;;;;;10.20;6.43;;;;;20.70;101093.00;;;;4928512;28;20228;-69
2022/08/01 07:16:34;;;;;;;11.47;6.60;;;;;20.60;101089.00;;;;4932055;29;20284;-70
2022/08/01 07:19:20;;;;;;;12.20;6.80;;;;;20.80;101083.00;;;;4931130;29;20247;-70
2022/08/01 07:22:06;;;;;;;9.87;6.80;;;;;21.00;101089.00;;;;4920693;29;20244;-71
2022/08/01 07:24:57;;;;;;;10.20;7.23;;;;;20.90;101086.00;;;;4923170;29;20225;-69
2022/08/01 07:27:44;;;;;;;11.00;6.70;;;;;21.10;101087.00;;;;4934091;28;20869;-71
2022/08/01 07:30:31;;;;;;;10.33;6.90;;;;;21.10;101093.00;;;;4924284;28;20271;-69
2022/08/01 07:33:17;;;;;;;8.47;6.67;;;;;21.10;101091.00;;;;4927656;29;20369;-70
2022/08/01 07:36:04;;;;;;;10.67;6.53;;;;;21.30;101087.00;;;;4923806;29;20241;-72
2022/08/01 07:38:54;;;;;;;9.67;6.13;;;;;21.30;101096.00;;;;4923591;29;20351;-69
2022/08/01 07:41:41;;;;;;;8.67;5.87;;;;;21.30;101093.00;;;;4927685;28;20776;-71
2022/08/01 07:44:47;;;;;;;7.30;5.70;;;;;21.40;101100.00;;;;4927394;29;20762;-70
2022/08/01 07:47:33;;;;;;;7.47;5.60;;;;;21.50;101100.00;;;;4935282;28;20241;-70
2022/08/01 07:50:20;;;;;;;7.30;5.10;;;;;21.50;101105.00;;;;4930269;29;20612;-70
2022/08/01 07:53:06;;;;;;;8.40;5.00;;;;;21.50;101113.00;;;;4920828;29;20233;-71
2022/08/01 07:55:54;;;;;;;6.00;4.77;;;;;21.50;101116.00;;;;4928537;29;20234;-70
2022/08/01 07:58:41;;;;;;;7.20;4.83;;;;;21.50;101116.00;;;;4926075;29;20234;-70
2022/08/01 08:01:28;;;;;;;7.27;5.17;;;;;21.70;101122.00;;;;4930750;29;20372;-71
2022/08/01 08:04:14;;;;;;;8.10;4.20;;;;;21.70;101116.00;;;;4928413;28;20240;-71
2022/08/01 08:07:00;;;;;;;6.93;4.40;;;;;21.70;101120.00;;;;4923768;28;20741;-70
2022/08/01 08:09:47;;;;;;;5.93;4.40;;;;;21.80;101121.00;;;;4926572;29;20231;-71
2022/08/01 08:12:36;;;;;;;5.90;4.43;;;;;21.90;101123.00;;;;4924845;29;20376;-70
2022/08/01 08:15:24;;;;;;;7.10;4.20;;;;;22.00;101120.00;;;;4934108;28;20243;-70
2022/08/01 08:18:10;;;;;;;5.90;4.20;;;;;22.20;101128.00;;;;4930574;28;20730;-72
2022/08/01 08:20:56;;;;;;;5.43;4.00;;;;;22.10;101122.00;;;;4929621;29;20259;-71
2022/08/01 08:26:47;;;;;;;6.63;3.80;;;;;22.20;101130.00;;;;4929049;29;20597;-72
2022/08/01 08:29:37;;;;;;;4.67;3.30;;;;;22.30;101122.00;;;;4928710;28;20243;-71
2022/08/01 08:32:25;;;;;;;3.67;2.63;;;;;22.60;101133.00;;;;4926054;29;20258;-71
2022/08/01 08:35:12;;;;;;;2.20;2.00;;;;;22.60;101121.00;;;;4933379;28;20729;-70
2022/08/01 08:38:08;;;;;;;2.20;2.00;;;;;22.80;101120.00;;;;4928427;28;20247;-71
2022/08/01 08:40:57;;;;;;;2.50;2.00;;;;;22.90;101119.00;;;;4928348;28;20232;-71
2022/08/01 08:43:44;;;;;;;3.07;2.27;;;;;23.30;101127.00;;;;4929938;29;20290;-70
2022/08/01 08:46:33;;;;;;;2.53;2.10;;;;;23.40;101135.00;;;;4920016;29;20240;-70
2022/08/01 08:49:26;;;;;;;2.33;1.90;;;;;23.20;101129.00;;;;4929201;29;20307;-71
2022/08/01 08:52:22;;;;;;;2.17;1.70;;;;;23.00;101137.00;;;;4928616;29;20236;-71
2022/08/01 08:55:09;;;;;;;2.73;2.10;;;;;22.80;101146.00;;;;4921893;29;20629;-71
2022/08/01 08:57:57;;;;;;;3.20;2.03;;;;;22.90;101148.00;;;;4927085;28;20324;-69
2022/08/01 09:00:43;;;;;;;5.13;2.40;;;;;22.70;101163.00;;;;4927297;29;20262;-72
2022/08/01 09:03:33;;;;;;;2.40;2.10;;;;;22.30;101170.00;;;;4927537;29;20243;-71
2022/08/01 09:06:21;;;;;;;0.97;0.97;;;;;22.00;101166.00;;;;4921628;29;20243;-72
2022/08/01 09:09:09;;;;;;;1.13;0.90;;;;;21.70;101176.00;;;;4929149;29;20243;-72
2022/08/01 09:11:56;;;;;;;0.93;0.93;;;;;21.80;101181.00;;;;4925958;29;20293;-71
2022/08/01 09:14:47;;;;;;;0.80;0.80;;;;;21.90;101189.00;;;;4927256;28;20236;-72
2022/08/01 09:17:41;;;;;;;0.80;0.80;;;;;21.90;101176.00;;;;4929864;29;20247;-70
2022/08/01 09:20:30;;;;;;;0.70;0.70;;;;;22.10;101178.00;;;;4921111;29;20259;-71
2022/08/01 09:26:11;;;;;;;0.70;0.70;;;;;22.50;101189.00;;;;5054144;27;20577;-72
2022/08/01 09:28:59;;;;;;;0.60;0.60;;;;;22.60;101190.00;;;;5023608;28;20705;-72
2022/08/01 09:31:46;;;;;;;0.97;0.97;;;;;22.80;101195.00;;;;5043086;28;20294;-70
2022/08/01 09:34:33;;;;;;;0.80;0.80;;;;;22.70;101206.00;;;;5042332;28;20303;-71
2022/08/01 09:37:30;;;;;;;1.10;0.83;;;;;22.80;101191.00;;;;5047809;28;20240;-71
2022/08/01 09:40:22;;;;;;;1.00;0.73;;;;;22.60;101191.00;;;;5041939;28;20235;-71
2022/08/01 09:43:14;;;;;;;1.80;0.80;;;;;23.00;101198.00;;;;5044335;28;20363;-71
2022/08/01 09:46:06;;;;;;;2.50;2.00;;;;;22.90;101208.00;;;;5022656;28;20240;-71
2022/08/01 09:48:59;;;;;;;3.90;2.30;;;;;23.20;101212.00;;;;5027595;28;20589;-70
2022/08/01 09:51:46;;;;;;;1.90;0.90;;;;;23.40;101220.00;;;;5025597;28;20352;-74
2022/08/01 09:54:55;;;;;;;1.23;0.90;;;;;23.60;101215.00;;;;5045141;28;20236;-74
2022/08/01 09:57:41;;;;;;;0.77;0.70;;;;;23.70;101216.00;;;;5035190;28;20359;-74
2022/08/01 10:00:29;;;;;;;0.90;0.90;;;;;23.30;101226.00;;;;5023406;28;20230;-75
2022/08/01 10:03:30;;;;;;;0.93;0.93;;;;;23.00;101220.00;;;;5021276;28;20878;-76
2022/08/01 10:06:21;;;;;;;0.80;0.80;;;;;22.90;101221.00;;;;5049298;28;20294;-76
2022/08/01 10:09:11;;;;;;;0.87;0.87;;;;;23.50;101228.00;;;;5043912;28;20915;-76
2022/08/01 10:12:00;;;;;;;0.90;0.90;;;;;23.30;101228.00;;;;5045503;28;20738;-74
2022/08/01 10:14:49;;;;;;;0.90;0.90;;;;;23.50;101227.00;;;;5043154;28;20603;-73
2022/08/01 10:17:40;;;;;;;0.90;0.90;;;;;23.90;101234.00;;;;5046656;28;20291;-74
2022/08/01 10:20:37;;;;;;;1.53;1.00;;;;;23.80;101227.00;;;;5029150;28;20239;-75
2022/08/01 10:23:25;;;;;;;1.00;1.00;;;;;23.80;101230.00;;;;5047815;28;20244;-76
2022/08/01 10:26:27;;;;;;;1.30;1.20;;;;;24.10;101235.00;;;;5040523;28;20359;-75
2022/08/01 10:29:19;;;;;;;0.90;0.90;;;;;24.10;101229.00;;;;5048094;28;20229;-76
2022/08/01 10:32:26;;;;;;;1.10;1.00;;;;;23.80;101232.00;;;;5045582;28;20299;-78
2022/08/01 10:35:17;;;;;;;1.30;1.00;;;;;23.80;101241.00;;;;5045003;28;20224;-75
2022/08/01 10:38:24;;;;;;;1.97;0.90;;;;;23.90;101246.00;;;;5024564;28;20728;-77
2022/08/01 10:41:10;;;;;;;1.17;0.90;;;;;23.80;101236.00;;;;5003552;28;20234;-77
2022/08/01 10:43:58;;;;;;;1.57;0.70;;;;;23.90;101242.00;;;;5026983;28;20226;-74
2022/08/01 10:46:49;;;;;;;1.27;1.00;;;;;24.10;101237.00;;;;5030428;28;20280;-75
2022/08/01 10:49:44;;;;;;;0.90;0.90;;;;;24.30;101237.00;;;;5031352;28;20346;-73
2022/08/01 10:52:31;;;;;;;0.87;0.87;;;;;24.40;101252.00;;;;5028422;28;20714;-74
2022/08/01 10:55:25;;;;;;;1.57;1.00;;;;;24.20;101248.00;;;;5025166;28;20241;-75
2022/08/01 10:58:12;;;;;;;5.13;1.20;;;;;24.30;101244.00;;;;5028332;28;20717;-74
2022/08/01 11:01:27;;;;;;;1.80;1.10;;;;;24.40;101247.00;;;;5035633;28;20252;-73
2022/08/01 11:04:14;;;;;;;0.90;0.90;;;;;24.50;101244.00;;;;5028357;28;20232;-76
2022/08/01 11:07:05;;;;;;;1.10;1.00;;;;;24.70;101244.00;;;;5026782;28;20299;-74
2022/08/01 11:10:06;;;;;;;1.00;1.00;;;;;24.30;101237.00;;;;5027630;28;20360;-74
2022/08/01 11:13:03;;;;;;;1.20;1.07;;;;;24.20;101239.00;;;;5028913;28;20229;-74
2022/08/01 11:15:49;;;;;;;1.07;1.07;;;;;24.80;101250.00;;;;5024670;28;20272;-74
2022/08/01 11:18:36;;;;;;;1.20;1.00;;;;;25.10;101237.00;;;;5027900;28;20233;-74
2022/08/01 11:22:02;;;;;;;0.93;0.93;;;;;25.20;101231.00;;;;5011510;28;20411;-73
2022/08/01 11:24:59;;;;;;;1.40;1.30;;;;;24.90;101231.00;;;;5007536;28;20596;-72
2022/08/01 11:27:47;;;;;;;1.97;1.20;;;;;24.80;101232.00;;;;5007595;28;20624;-71
2022/08/01 11:30:34;;;;;;;1.00;1.00;;;;;24.20;101237.00;;;;5031425;28;20237;-73
2022/08/01 11:33:49;;;;;;;1.20;1.10;;;;;24.20;101236.00;;;;5008870;28;20316;-74
2022/08/01 11:36:37;;;;;;;1.30;1.20;;;;;24.10;101244.00;;;;5027118;28;20605;-72
2022/08/01 11:39:43;;;;;;;1.23;1.20;;;;;24.10;101242.00;;;;5005582;28;20238;-74
2022/08/01 11:42:29;;;;;;;1.30;1.20;;;;;23.90;101241.00;;;;5009925;28;20238;-73
2022/08/01 11:45:17;;;;;;;1.43;1.33;;;;;23.80;101236.00;;;;5011458;28;20249;-74
2022/08/01 11:48:18;;;;;;;1.33;1.10;;;;;23.60;101241.00;;;;5007757;28;20226;-73
2022/08/01 11:51:16;;;;;;;1.83;1.20;;;;;23.30;101248.00;;;;5016520;28;20737;-75
2022/08/01 11:54:11;;;;;;;1.90;1.10;;;;;23.30;101247.00;;;;5024433;28;20229;-74
2022/08/01 11:56:58;;;;;;;2.17;1.53;;;;;23.80;101248.00;;;;5026910;28;20225;-73
2022/08/01 11:59:48;;;;;;;1.70;1.60;;;;;24.50;101247.00;;;;5023250;28;20713;-74
2022/08/01 12:02:58;;;;;;;2.43;1.57;;;;;24.60;101245.00;;;;5024905;28;20930;-72
2022/08/01 12:05:45;;;;;;;1.80;1.70;;;;;24.60;101243.00;;;;5026492;28;20364;-73
2022/08/01 12:08:34;;;;;;;1.50;1.40;;;;;24.80;101244.00;;;;5026473;28;20272;-73
2022/08/01 12:11:21;;;;;;;1.43;1.30;;;;;24.90;101240.00;;;;5022260;28;20914;-74
2022/08/01 12:14:08;;;;;;;2.07;1.37;;;;;25.00;101247.00;;;;5027072;28;20217;-73
2022/08/01 12:16:55;;;;;;;1.73;1.40;;;;;25.40;101240.00;;;;5025398;28;20256;-73
2022/08/01 12:19:42;;;;;;;3.60;1.50;;;;;25.00;101244.00;;;;5033298;28;20229;-75
2022/08/01 12:22:29;;;;;;;1.50;1.40;;;;;25.50;101245.00;;;;5027780;28;20740;-74
2022/08/01 12:25:16;;;;;;;2.57;1.87;;;;;25.90;101249.00;;;;5003441;28;20293;-74
2022/08/01 12:28:04;;;;;;;2.83;1.70;;;;;26.00;101252.00;;;;5005760;28;20368;-74
2022/08/01 12:30:51;;;;;;;3.63;1.60;;;;;26.20;101252.00;;;;5004077;28;20924;-73
2022/08/01 12:33:37;;;;;;;1.97;1.60;;;;;26.40;101244.00;;;;5007892;28;20238;-73
2022/08/01 12:36:29;;;;;;;2.80;1.70;;;;;26.20;101245.00;;;;5001038;28;20237;-74
2022/08/01 12:39:15;;;;;;;3.30;1.60;;;;;26.30;101246.00;;;;5001831;28;20234;-73
2022/08/01 12:42:02;;;;;;;2.00;1.80;;;;;26.10;101243.00;;;;5006612;28;20284;-74
2022/08/01 12:44:50;;;;;;;1.73;1.50;;;;;26.30;101249.00;;;;5004822;28;20611;-73
2022/08/01 12:47:37;;;;;;;2.60;1.43;;;;;26.60;101244.00;;;;5006012;28;20320;-73
2022/08/01 12:50:28;;;;;;;1.87;1.67;;;;;26.80;101248.00;;;;5002830;28;20312;-73
2022/08/01 12:53:18;;;;;;;2.33;1.70;;;;;26.80;101248.00;;;;5024001;28;20292;-73
2022/08/01 12:56:07;;;;;;;1.77;1.67;;;;;26.60;101241.00;;;;5025772;28;20316;-73
2022/08/01 12:58:54;;;;;;;1.77;1.67;;;;;26.60;101243.00;;;;5021495;28;20237;-73
2022/08/01 13:01:41;;;;;;;3.42;1.70;;;;;26.40;101250.00;;;;5026225;28;20702;-72
2022/08/01 13:04:28;;;;;;;2.67;1.50;;;;;26.00;101244.00;;;;5024484;28;20315;-74
2022/08/01 13:07:14;;;;;;;1.80;1.70;;;;;25.80;101255.00;;;;5026071;28;20237;-72
2022/08/01 13:10:02;;;;;;;2.63;1.67;;;;;25.40;101255.00;;;;5025069;28;20713;-71
2022/08/01 13:12:53;;;;;;;2.72;1.77;;;;;25.60;101254.00;;;;5019899;28;20322;-71
2022/08/01 13:15:43;;;;;;;1.90;1.80;;;;;26.00;101249.00;;;;5005226;28;20260;-71
2022/08/01 13:18:32;;;;;;;2.28;1.77;;;;;25.70;101252.00;;;;5006628;28;20302;-71
2022/08/01 13:21:20;;;;;;;2.85;1.40;;;;;25.50;101252.00;;;;5005523;28;20226;-71
2022/08/01 13:24:09;;;;;;;2.83;1.70;;;;;25.40;101250.00;;;;5007882;28;20229;-73
2022/08/01 13:26:59;;;;;;;2.70;1.80;;;;;25.70;101255.00;;;;5028009;28;20268;-71
2022/08/01 13:29:49;;;;;;;3.13;1.83;;;;;26.00;101245.00;;;;5024199;28;20232;-70
2022/08/01 13:32:36;;;;;;;2.43;2.20;;;;;25.40;101258.00;;;;5017079;28;20821;-72
2022/08/01 13:35:22;;;;;;;2.90;2.20;;;;;25.10;101253.00;;;;5002796;28;20348;-72
2022/08/01 13:38:08;;;;;;;2.87;1.97;;;;;25.40;101247.00;;;;5007639;28;20276;-73
2022/08/01 13:40:59;;;;;;;2.30;2.10;;;;;25.60;101260.00;;;;5028963;28;20244;-75
2022/08/01 13:43:47;;;;;;;2.67;2.20;;;;;25.40;101238.00;;;;5031609;28;20590;-74
2022/08/01 13:46:47;;;;;;;3.93;2.23;;;;;25.60;101251.00;;;;5034020;28;20375;-74
2022/08/01 13:49:36;;;;;;;2.53;1.90;;;;;25.40;101252.00;;;;5034372;28;20233;-73
2022/08/01 13:52:26;;;;;;;3.03;2.20;;;;;25.90;101256.00;;;;5029346;28;20228;-74
2022/08/01 13:55:12;;;;;;;3.37;2.10;;;;;26.70;101254.00;;;;5017124;28;20226;-74
2022/08/01 13:57:59;;;;;;;5.50;2.80;;;;;26.20;101260.00;;;;5004452;28;20234;-74